Terminal Aerodrome Forecast
Issued by NWS

Home | Current Version | Previous Version | Text Only | Print | Product List | Glossary On
Versions: 1 2 3 4 5 6 7 8 9 10 11 12 13 14 15 16 17 18 19 20
000
FTUS43 KDTX 011700
TAFMBS
TAF
KMBS 011720Z 0118/0218 21013G20KT P6SM SCT035 BKN070
      TEMPO 0119/0121 2SM TSRA OVC025CB
     FM012100 23010KT P6SM SCT035 BKN070 OVC200
     FM020700 23005KT P6SM BKN035 OVC070=

USA.gov is the U.S. government's official web portal to all federal, state and local government web resources and services.